createdAt,value
2018-09-09T11:49:31.957Z,3.10
2018-09-09T11:52:00.280Z,3.23
2018-09-09T11:54:28.678Z,5.13
2018-09-09T11:56:57.231Z,3.50
2018-09-09T11:59:25.547Z,5.50
2018-09-09T12:01:53.923Z,4.17
2018-09-09T12:04:22.234Z,4.47
2018-09-09T12:06:50.788Z,6.07
2018-09-09T12:09:19.118Z,3.50
2018-09-09T12:11:47.465Z,4.10
2018-09-09T12:14:16.810Z,5.00
2018-09-09T12:16:45.121Z,3.87
2018-09-09T12:19:13.405Z,4.60
2018-09-09T12:21:41.771Z,3.90
2018-09-09T12:24:10.119Z,3.57
2018-09-09T12:26:38.477Z,3.40
2018-09-09T12:29:07.057Z,3.23
2018-09-09T12:31:35.387Z,3.73
2018-09-09T12:34:03.711Z,7.60
2018-09-09T12:36:33.051Z,3.80
2018-09-09T12:39:01.377Z,5.23
2018-09-09T12:41:29.952Z,3.37
2018-09-09T12:44:03.685Z,5.00
2018-09-09T12:46:37.323Z,3.27
2018-09-09T12:49:07.017Z,10.23
2018-09-09T12:51:35.377Z,8.30
2018-09-09T12:54:03.735Z,7.43
2018-09-09T12:56:32.124Z,5.90
2018-09-09T12:59:04.556Z,14.03
2018-09-09T13:01:34.445Z,25.73
2018-09-09T13:04:03.835Z,96.63
2018-09-09T13:06:32.233Z,74.27
2018-09-09T13:09:00.583Z,50.77
2018-09-09T13:11:32.927Z,29.70
2018-09-09T13:14:02.268Z,25.53
2018-09-09T13:16:30.626Z,34.10
2018-09-09T13:18:59.024Z,20.73
2018-09-09T13:21:27.330Z,33.20
2018-09-09T13:23:55.692Z,29.73
2018-09-09T13:26:24.126Z,23.73
2018-09-09T13:28:53.108Z,19.00
2018-09-09T13:31:21.446Z,17.80
2018-09-09T13:33:55.612Z,21.63
2018-09-09T13:39:39.800Z,32.33
2018-09-09T13:42:15.395Z,19.60
2018-09-09T13:44:45.371Z,24.97
2018-09-09T13:47:13.882Z,25.50
2018-09-09T13:49:44.239Z,16.23
2018-09-09T13:52:12.635Z,35.77
2018-09-09T13:54:41.318Z,29.17
2018-09-09T13:57:09.743Z,35.03
2018-09-09T13:59:38.135Z,45.30
2018-09-09T14:02:06.479Z,34.97
2018-09-09T14:04:34.854Z,32.73
2018-09-09T14:07:03.190Z,98.37
2018-09-09T14:09:32.684Z,110.77
2018-09-09T14:12:01.354Z,109.43
2018-09-09T14:14:29.802Z,160.60
2018-09-09T14:16:58.369Z,125.50
2018-09-09T14:19:26.697Z,140.80
2018-09-09T14:21:56.679Z,137.00
2018-09-09T14:24:26.836Z,73.30
2018-09-09T14:26:55.229Z,81.77
2018-09-09T14:29:23.692Z,149.17
2018-09-09T14:31:52.073Z,101.13
2018-09-09T14:34:20.487Z,79.13
2018-09-09T14:36:49.303Z,75.93
2018-09-09T14:39:18.809Z,71.67
2018-09-09T14:41:47.334Z,64.63
2018-09-09T14:44:15.718Z,65.73
2018-09-09T14:46:44.074Z,46.63
2018-09-09T14:49:12.903Z,48.40
2018-09-09T14:51:41.258Z,45.90
2018-09-09T14:54:09.626Z,56.97
2018-09-09T14:56:37.974Z,38.70
2018-09-09T14:59:07.339Z,37.13
2018-09-09T15:01:35.725Z,48.40
2018-09-09T15:04:04.090Z,48.10
2018-09-09T15:06:32.431Z,32.77
2018-09-09T15:09:00.805Z,52.97
2018-09-09T15:11:29.228Z,50.53
2018-09-09T15:13:57.583Z,59.73
2018-09-09T15:16:26.040Z,49.27
2018-09-09T15:18:54.382Z,30.47
2018-09-09T15:21:23.788Z,78.27
2018-09-09T15:23:52.182Z,106.77
2018-09-09T15:26:20.598Z,42.23
2018-09-09T15:28:49.047Z,33.87
2018-09-09T15:31:17.334Z,46.33
2018-09-09T15:33:46.677Z,38.10
2018-09-09T15:36:15.005Z,54.80
2018-09-09T15:38:43.367Z,51.23
2018-09-09T15:41:11.732Z,98.40
2018-09-09T15:43:40.142Z,163.00
2018-09-09T15:46:08.658Z,69.50
2018-09-09T15:48:37.043Z,135.97
2018-09-09T15:51:05.402Z,62.27
2018-09-09T15:53:33.757Z,155.13
2018-09-09T15:56:02.219Z,94.57
2018-09-09T15:58:30.551Z,59.30
2018-09-09T16:00:58.974Z,188.07
2018-09-09T16:03:27.333Z,148.10
2018-09-09T16:05:56.665Z,83.17
2018-09-09T16:08:24.986Z,171.30
2018-09-09T16:10:53.322Z,198.77
2018-09-09T16:13:22.056Z,132.00
2018-09-09T16:15:50.426Z,98.97
2018-09-09T16:18:18.857Z,150.33
2018-09-09T16:20:47.213Z,189.13
2018-09-09T16:23:15.594Z,128.17
2018-09-09T16:25:43.936Z,259.13
2018-09-09T16:28:12.285Z,105.97
2018-09-09T16:30:40.661Z,167.83
2018-09-09T16:33:08.974Z,126.03
2018-09-09T16:35:37.281Z,137.90
2018-09-09T16:38:05.685Z,198.03
2018-09-09T16:40:34.726Z,171.27
2018-09-09T16:43:03.054Z,195.77
2018-09-09T16:45:31.413Z,240.13
2018-09-09T16:47:59.755Z,175.87
2018-09-09T16:50:28.123Z,157.90
2018-09-09T16:52:56.471Z,182.03
2018-09-09T16:55:24.794Z,118.97
2018-09-09T16:57:53.146Z,99.60
2018-09-09T17:00:21.527Z,242.90
2018-09-09T17:02:49.832Z,137.90
2018-09-09T17:05:19.185Z,275.50
2018-09-09T17:07:47.529Z,195.80
2018-09-09T17:10:15.859Z,190.87
2018-09-09T17:12:44.219Z,72.07
2018-09-09T17:15:12.621Z,165.10
2018-09-09T17:17:40.987Z,105.30
2018-09-09T17:20:09.344Z,200.77
2018-09-09T17:22:37.707Z,120.87
2018-09-09T17:25:06.118Z,192.27
2018-09-09T17:27:34.484Z,80.90
2018-09-09T17:30:03.927Z,217.30
2018-09-09T17:32:32.281Z,117.30
2018-09-09T17:35:00.680Z,113.63
2018-09-09T17:37:29.026Z,104.37
2018-09-09T17:39:57.407Z,135.30
2018-09-09T17:42:25.777Z,89.10
2018-09-09T17:44:55.221Z,144.40
2018-09-09T17:47:23.595Z,112.73
2018-09-09T17:49:51.998Z,120.43
2018-09-09T17:52:20.379Z,106.13
2018-09-09T17:54:48.741Z,89.17
2018-09-09T17:57:17.142Z,124.90
2018-09-09T17:59:45.527Z,99.10
2018-09-09T18:02:13.898Z,111.73
2018-09-09T18:04:42.267Z,100.40
2018-09-09T18:07:10.623Z,102.83
2018-09-09T18:09:39.011Z,90.50
2018-09-09T18:12:07.337Z,96.90
2018-09-09T18:14:35.678Z,80.10
2018-09-09T18:17:04.029Z,75.60
2018-09-09T18:19:32.420Z,100.67
2018-09-09T18:22:00.762Z,82.13
2018-09-09T18:24:29.153Z,81.00
2018-09-09T18:26:57.577Z,80.50
2018-09-09T18:29:25.975Z,57.27
2018-09-09T18:31:54.335Z,44.10
2018-09-09T18:34:22.642Z,78.37
2018-09-09T18:36:51.025Z,66.43
2018-09-09T18:39:19.338Z,47.83
2018-09-09T18:41:47.666Z,36.30
2018-09-09T18:44:16.004Z,46.60
2018-09-09T18:46:45.377Z,41.50
2018-09-09T18:49:13.781Z,38.83
2018-09-09T18:51:42.133Z,56.30
2018-09-09T18:54:10.453Z,62.10
2018-09-09T18:56:38.787Z,60.73
2018-09-09T18:59:07.103Z,32.57
2018-09-09T19:01:35.430Z,39.03
2018-09-09T19:04:03.788Z,18.13
2018-09-09T19:06:32.219Z,22.40
2018-09-09T19:09:00.705Z,27.93
2018-09-09T19:11:29.030Z,23.93
2018-09-09T19:13:57.412Z,20.30
2018-09-09T19:16:25.817Z,21.10
2018-09-09T19:18:54.148Z,13.50
2018-09-09T19:21:22.526Z,16.87
2018-09-09T19:23:50.800Z,16.57
2018-09-09T19:26:19.188Z,18.33
2018-09-09T19:28:47.604Z,18.47
2018-09-09T19:31:15.948Z,29.37
2018-09-09T19:33:45.321Z,15.43
2018-09-09T19:36:13.649Z,17.13
2018-09-09T19:38:41.993Z,13.70
2018-09-09T19:41:10.333Z,12.00
2018-09-09T19:43:38.684Z,15.37
2018-09-09T19:46:07.069Z,23.27
2018-09-09T19:48:35.410Z,11.77
2018-09-09T19:51:03.806Z,21.57
2018-09-09T19:53:32.121Z,35.50
2018-09-09T19:56:00.513Z,20.23
2018-09-09T19:58:28.947Z,22.63
2018-09-09T20:00:57.265Z,15.87
2018-09-09T20:03:25.621Z,22.00
2018-09-09T20:05:54.072Z,14.63
2018-09-09T20:08:22.406Z,8.57
2018-09-09T20:10:50.764Z,9.50
2018-09-09T20:13:19.107Z,5.50
2018-09-09T20:15:48.487Z,7.20
2018-09-09T20:18:16.859Z,6.20
2018-09-09T20:20:45.181Z,7.97
2018-09-09T20:23:14.574Z,7.20
2018-09-09T20:25:43.023Z,6.90
2018-09-09T20:28:11.311Z,5.57
2018-09-09T20:30:39.847Z,5.97
2018-09-09T20:33:08.225Z,5.93
2018-09-09T20:35:36.518Z,5.47
2018-09-09T20:38:04.850Z,6.83
2018-09-09T20:40:33.158Z,6.43
2018-09-09T20:43:01.494Z,4.80
2018-09-09T20:45:29.817Z,7.10
2018-09-09T20:47:58.171Z,6.33
2018-09-09T20:50:26.633Z,7.63
2018-09-09T20:52:54.969Z,6.07
2018-09-09T20:55:23.240Z,5.63
2018-09-09T20:57:51.562Z,4.50
2018-09-09T21:00:19.927Z,7.90
2018-09-09T21:02:48.289Z,4.77
2018-09-09T21:05:16.987Z,7.67
2018-09-09T21:07:47.715Z,5.73
2018-09-09T21:10:16.046Z,4.77
2018-09-09T21:12:44.750Z,5.17
2018-09-09T21:15:13.891Z,7.10
2018-09-09T21:17:43.003Z,5.13
2018-09-09T21:20:12.508Z,5.73
2018-09-09T21:22:41.448Z,5.87
2018-09-09T21:25:10.062Z,7.37
2018-09-09T21:27:39.631Z,5.13
2018-09-09T21:30:08.035Z,6.53
2018-09-09T21:32:36.654Z,4.53
2018-09-09T21:35:05.853Z,4.93
2018-09-09T21:37:35.582Z,5.50
2018-09-09T21:40:05.342Z,4.77
2018-09-09T21:42:35.524Z,5.10
2018-09-09T21:45:06.075Z,6.03
2018-09-09T21:47:34.463Z,6.50
2018-09-09T21:50:03.655Z,4.90
2018-09-09T21:52:32.746Z,6.77
2018-09-09T21:55:01.969Z,6.27
2018-09-09T21:57:32.357Z,6.10
2018-09-09T22:00:01.305Z,5.30
2018-09-09T22:02:30.714Z,5.10
2018-09-09T22:04:59.061Z,5.50
2018-09-09T22:07:27.450Z,4.33
2018-09-09T22:09:55.801Z,6.83
2018-09-09T22:12:24.849Z,5.17
2018-09-09T22:14:53.163Z,5.87
2018-09-09T22:17:21.499Z,5.97
2018-09-09T22:19:49.809Z,7.33
2018-09-09T22:22:18.169Z,10.97
2018-09-09T22:24:46.459Z,5.63
2018-09-09T22:27:14.801Z,5.23
2018-09-09T22:29:43.133Z,10.30
2018-09-09T22:32:11.454Z,7.27
2018-09-09T22:34:39.762Z,6.13
2018-09-09T22:37:08.087Z,5.40
2018-09-09T22:39:36.488Z,6.50
2018-09-09T22:42:05.654Z,9.87
2018-09-09T22:44:33.981Z,5.10
2018-09-09T22:47:02.317Z,8.50
2018-09-09T22:49:35.062Z,8.63
2018-09-09T22:52:03.604Z,4.63
2018-09-09T22:54:32.021Z,5.43
2018-09-09T22:57:01.054Z,5.23
2018-09-09T22:59:29.374Z,5.20
2018-09-09T23:01:57.709Z,7.20
2018-09-09T23:04:26.043Z,5.67
2018-09-09T23:06:54.362Z,6.17
2018-09-09T23:09:22.690Z,8.67
2018-09-09T23:11:51.018Z,5.07
2018-09-09T23:14:19.390Z,4.70
2018-09-09T23:16:47.783Z,4.70
2018-09-09T23:19:16.146Z,5.80
2018-09-09T23:21:44.447Z,10.97
2018-09-09T23:24:12.793Z,9.93
2018-09-09T23:26:41.155Z,5.60
2018-09-09T23:29:09.502Z,9.20
2018-09-09T23:31:37.857Z,4.73
2018-09-09T23:34:06.231Z,4.00
2018-09-09T23:36:34.590Z,5.03
2018-09-09T23:39:03.035Z,7.93
2018-09-09T23:41:31.347Z,5.30
2018-09-09T23:43:59.657Z,7.30
2018-09-09T23:46:28.010Z,4.93
2018-09-09T23:48:56.348Z,5.13
2018-09-09T23:51:24.641Z,5.43
2018-09-09T23:53:52.921Z,5.30
2018-09-09T23:56:22.289Z,4.87
2018-09-09T23:58:50.913Z,8.63
